• Join FlightAware (Why Join?)
  • Login
  • US Flag 
08:21AM EDT


 

Airport Tracker/Info


-or-


 

Live Flight TrackerFlight Track Log ✈ FLX413 ✈ 10-May-2013 ✈ KFXE - KORL

Flight Track Log - Related Links

Times and Time Zones

All times are in EDT time to prevent confusion due to time zone crossing. See the FLX413 flight status page for this flight to view local times or setup timezone preferences in your user account.

Time Position Orientation Groundspeed Altitude Reporting Facility
EDT Latitude Longitude Course Direction KTS MPH feet Rate Location/Type
04:40AM 26.2078 -80.1728 328° Northwest 98 113 1,200  Level Miami Center
04:41AM 26.2300 -80.2033 309° West 117 135 2,400 120 Climbing Miami Center
04:43AM 26.2692 -80.1792 29° Northeast  Level FlightAware Approximate
04:50AM 26.5606 -80.1099 13° North  Level FlightAware Approximate
04:51AM 26.6016 -80.0996 13° North  Level FlightAware Approximate
04:52AM 26.6426 -80.0894 13° North  Level FlightAware Approximate
04:53AM 26.6813 -80.0938 328° Northwest  Level FlightAware Approximate
04:54AM 26.7167 -80.1190 328° Northwest  Level FlightAware Approximate
04:55AM 26.7521 -80.1443 327° Northwest  Level FlightAware Approximate
04:56AM 26.7876 -80.1696 327° Northwest  Level FlightAware Approximate
04:57AM 26.8230 -80.1949 327° Northwest  Level FlightAware Approximate
04:57AM 26.8808 -80.5036 323° Northwest 173 199 4,000  Level Miami Center
04:58AM 26.8584 -80.2202 327° Northwest  Level FlightAware Approximate
04:58AM 26.9306 -80.5122 351° North 188 216 3,900  Level Miami Center
04:59AM 26.8938 -80.2456 327° Northwest  Level FlightAware Approximate
04:59AM 26.9722 -80.5206 350° North 177 204 3,900  Level Miami Center
05:00AM 26.9277 -80.2734 323° Northwest  Level FlightAware Approximate
05:00AM 27.0178 -80.5336 346° North 177 204 3,900  Level Miami Center
05:01AM 26.9613 -80.3018 323° Northwest  Level FlightAware Approximate
05:01AM 27.0697 -80.5469 347° North 177 204 4,000  Level Miami Center
05:02AM 27.1175 -80.5556 351° North 172 198 4,000  Level Miami Center
05:03AM 27.1633 -80.5592 356° North 172 198 4,000  Level Miami Center
05:04AM 27.2069 -80.5722 345° North 172 198 4,000  Level Miami Center
05:05AM 27.2525 -80.5831 348° North 172 198 4,100  Climbing Miami Center
05:06AM 27.3022 -80.6011 342° North 167 192 4,000 -60 Descending Miami Center
05:07AM 27.3475 -80.6236 336° Northwest 167 192 4,000  Level Miami Center
05:08AM 27.3844 -80.6483 329° Northwest 172 198 4,000  Level Miami Center
05:09AM 27.4233 -80.6775 326° Northwest 172 198 4,100  Climbing Miami Center
05:10AM 27.4642 -80.7139 322° Northwest 172 198 4,000  Descending Miami Center
05:11AM 27.5008 -80.7481 320° Northwest 172 198 4,100  Climbing Miami Center
05:12AM 27.5372 -80.7844 318° Northwest 172 198 4,100  Level Miami Center
05:13AM 27.5703 -80.8067 329° Northwest 172 198 4,100 -60 Level Miami Center
05:14AM 27.6194 -80.8386 330° Northwest 172 198 4,000 -60 Descending Miami Center
05:15AM 27.6542 -80.8658 325° Northwest 167 192 4,000  Level Miami Center
05:16AM 27.6969 -80.8978 327° Northwest 167 192 4,100  Climbing Miami Center
05:17AM 27.7403 -80.9228 333° Northwest 167 192 4,100  Level Miami Center
05:20AM 27.8500 -80.9833 334° Northwest 169 194 4,100  Level Orlando TRACON
05:21AM 27.9000 -81.0000 344° North 172 198 4,100 -60 Level Orlando TRACON
05:22AM 27.9333 -81.0167 336° Northwest 170 196 4,000  Descending Orlando TRACON
05:23AM 27.9833 -81.0500 330° Northwest 168 193 4,100  Climbing Orlando TRACON
05:24AM 28.0333 -81.0500 360° North 167 192 4,100 -60 Level Orlando TRACON
05:25AM 28.0833 -81.0667 344° North 169 194 4,000 -300 Descending Orlando TRACON
05:26AM 28.1167 -81.0833 336° Northwest 172 198 3,600 -540 Descending Orlando TRACON
05:27AM 28.1667 -81.0833 360° North 183 211 3,000 -300 Descending Orlando TRACON
05:28AM 28.2167 -81.1000 344° North 172 198 3,000  Level Orlando TRACON
05:29AM 28.2667 -81.1000 360° North 164 189 3,000 -60 Level Orlando TRACON
05:30AM 28.3167 -81.1000 360° North 168 193 2,900 -300 Descending Orlando TRACON
05:31AM 28.3667 -81.1167 344° North 181 208 2,500 -360 Descending Orlando TRACON
05:32AM 28.4167 -81.1333 344° North 184 212 2,200 -240 Descending Orlando TRACON
05:33AM 28.4667 -81.1500 344° North 180 207 2,100 -120 Descending Orlando TRACON